Cbeh — BOHM — position and weather

sailwx.info

Track history (hours):
 
Tides and Currents Weather Stations Pressure Air Temp Water Temp Dewpoint Dewpoint Depression Visibility Wind Speed Wind Dir Waves Ship Positions

Cbeh

Last reported at 2017-May-27 22:45 UTC. Time now 2017-May-29 00:04 UTC.
Position N 23°50' E 118°08'.

Length 222 m; draft 5.4 m.

Type: Wing in ground effect craft. MMSI: 412228000.

Date/timePositionNaut miles runAvg speedWind from/ knotsBaromVisibWave heightAir tempDewpointWater temp
2017-May-27 22:45N 23°50' E 118°08'916.8
2017-May-27 22:14N 23°56' E 118°15'417.0
2017-May-27 22:00N 23°59' E 118°18'1417.0
2017-May-27 21:12N 24°08' E 118°29'617.1
2017-May-27 20:50N 24°12' E 118°34'617.3
2017-May-27 20:28N 24°16' E 118°40'817.4
2017-May-27 20:00N 24°21' E 118°47'40216.6
2017-May-26 19:45N 29°55' E 122°56'816.4
2017-May-26 19:15N 30°03' E 122°60'616.8
2017-May-26 18:55N 30°08' E 123°01'1416.5
2017-May-26 18:04N 30°23' E 123°00'716.4
2017-May-26 17:39N 30°29' E 123°00'1016.0
2017-May-26 17:01N 30°40' E 123°00'115.9
2017-May-26 16:58N 30°40' E 123°00'715.3
2017-May-26 16:29N 30°48' E 123°00'814.8
2017-May-26 15:58N 30°55' E 123°00'715.0
2017-May-26 15:29N 31°03' E 122°60'915.1
2017-May-26 14:54N 31°11' E 122°59'814.6
2017-May-26 14:23N 31°19' E 122°59'1314.8
2017-May-26 13:30N 31°32' E 122°58'815.4
2017-May-26 12:59N 31°40' E 122°58'816.2
2017-May-26 12:30N 31°48' E 122°58'816.9
2017-May-26 12:00N 31°56' E 122°57'917.6
2017-May-26 11:30N 32°05' E 122°57'1118.6
2017-May-26 10:56N 32°16' E 122°57'818.7
2017-May-26 10:30N 32°24' E 122°57'918.1
2017-May-26 10:00N 32°33' E 122°57'918.2
2017-May-26 09:30N 32°42' E 122°57'1217.8
2017-May-26 08:50N 32°54' E 122°57'26516.9
2017-May-25 17:09N 37°19' E 122°47'619.2
2017-May-25 16:50N 37°25' E 122°48'719.5
2017-May-25 16:29N 37°31' E 122°43'918.1
2017-May-25 15:59N 37°35' E 122°33'918.8
2017-May-25 15:30N 37°40' E 122°24'918.4
2017-May-25 15:00N 37°44' E 122°13'1817.7
2017-May-25 14:00N 37°46' E 121°51'917.8
2017-May-25 13:30N 37°49' E 121°40'917.7
2017-May-25 13:00N 37°53' E 121°30'917.8
2017-May-25 12:30N 37°54' E 121°19'917.6
2017-May-25 12:00N 37°57' E 121°08'917.6
2017-May-25 11:30N 37°58' E 120°57'918.3
2017-May-25 11:00N 38°00' E 120°46'918.2
2017-May-25 10:30N 38°02' E 120°35'917.4
2017-May-25 10:00N 38°04' E 120°24'917.1
2017-May-25 09:30N 38°08' E 120°14'917.2
2017-May-25 09:01N 38°12' E 120°04'119 4.1
2017-May-24 03:41N 39°01' E 117°46'0 0.6
2017-May-24 03:27N 39°01' E 117°46'1 1.5
2017-May-24 02:55N 39°01' E 117°47'3 6.6
2017-May-24 02:29N 38°58' E 117°48'4 8.3
2017-May-24 01:59N 38°57' E 117°54'5 9.1
2017-May-24 01:27N 38°57' E 118°00'2 5.7
2017-May-24 01:00N 38°56' E 118°03'510.1
2017-May-24 00:30N 38°54' E 118°09'5 9.7
2017-May-23 23:59N 38°52' E 118°15'4 9.0
2017-May-23 23:30N 38°50' E 118°20'3 5.4
2017-May-23 23:00N 38°47' E 118°21'1 1.6
2017-May-23 22:30N 38°48' E 118°20'2 4.2
2017-May-23 22:00N 38°49' E 118°23'1 1.0
2017-May-23 21:30N 38°49' E 118°22'4 7.6
2017-May-23 20:59N 38°50' E 118°27'612.2
2017-May-23 20:30N 38°50' E 118°35'612.7
2017-May-23 20:00N 38°49' E 118°43'612.9
2017-May-23 19:30N 38°48' E 118°51'712.9
2017-May-23 19:00N 38°45' E 118°59'713.4
2017-May-23 18:30N 38°43' E 119°06'713.9
2017-May-23 17:58N 38°39' E 119°15'714.2
2017-May-23 17:30N 38°36' E 119°22'714.4
2017-May-23 17:00N 38°32' E 119°30'3214.7
2017-May-23 14:50N 38°14' E 120°03'1214.1
2017-May-23 14:00N 38°07' E 120°15'815.0
2017-May-23 13:30N 38°05' E 120°24'715.0
2017-May-23 13:00N 38°03' E 120°34'714.8
2017-May-23 12:30N 38°02' E 120°43'714.2
2017-May-23 12:01N 37°60' E 120°51'714.4
2017-May-23 11:31N 37°59' E 121°00'714.1
2017-May-23 11:00N 37°58' E 121°09'713.7
2017-May-23 10:30N 37°56' E 121°18'713.1
2017-May-23 10:00N 37°54' E 121°26'713.5
2017-May-23 09:30N 37°53' E 121°34'713.5
2017-May-23 09:01N 37°51' E 121°42'713.8
2017-May-23 08:30N 37°49' E 121°51'714.2
2017-May-23 08:00N 37°47' E 121°59'714.5
2017-May-23 07:30N 37°45' E 122°08'714.7
2017-May-23 07:00N 37°44' E 122°17'385 8.6
2017-May-21 10:20N 31°21' E 121°39'2 6.5
2017-May-21 10:00N 31°20' E 121°41'611.1
2017-May-21 09:30N 31°18' E 121°47'714.0
2017-May-21 09:00N 31°16' E 121°55'713.9
2017-May-21 08:31N 31°14' E 122°03'5 9.2
2017-May-21 08:00N 31°13' E 122°08'5 9.5
2017-May-21 07:31N 31°10' E 122°12'4 8.7
2017-May-21 07:00N 31°07' E 122°16'510.1
2017-May-21 06:30N 31°06' E 122°22'63 5.3
2017-May-20 18:40N 30°13' E 123°00'38716.4
2017-May-19 19:04N 24°42' E 119°13'217.3
2017-May-19 18:57N 24°41' E 119°11'4317.2
2017-May-19 16:28N 24°13' E 118°36'817.1
2017-May-19 15:59N 24°07' E 118°30'816.8
2017-May-19 15:30N 24°02' E 118°23'  
Track history (hours):
 
Tides and Currents Weather Stations Pressure Air Temp Water Temp Dewpoint Dewpoint Depression Visibility Wind Speed Wind Dir Waves Ship Positions

Cbeh

Last reported at 2017-May-27 22:45 UTC. Time now 2017-May-29 00:04 UTC.
Position N 23°50' E 118°08'.

Length 222 m; draft 5.4 m.

Type: Wing in ground effect craft. MMSI: 412228000.

Date/timePositionNaut miles runAvg speedWind from/ knotsBaromVisibWave heightAir tempDewpointWater temp
2017-May-27 22:45N 23°50' E 118°08'916.8
2017-May-27 22:14N 23°56' E 118°15'417.0
2017-May-27 22:00N 23°59' E 118°18'1417.0
2017-May-27 21:12N 24°08' E 118°29'617.1
2017-May-27 20:50N 24°12' E 118°34'617.3
2017-May-27 20:28N 24°16' E 118°40'817.4
2017-May-27 20:00N 24°21' E 118°47'40216.6
2017-May-26 19:45N 29°55' E 122°56'816.4
2017-May-26 19:15N 30°03' E 122°60'616.8
2017-May-26 18:55N 30°08' E 123°01'1416.5
2017-May-26 18:04N 30°23' E 123°00'716.4
2017-May-26 17:39N 30°29' E 123°00'1016.0
2017-May-26 17:01N 30°40' E 123°00'115.9
2017-May-26 16:58N 30°40' E 123°00'715.3
2017-May-26 16:29N 30°48' E 123°00'814.8
2017-May-26 15:58N 30°55' E 123°00'715.0
2017-May-26 15:29N 31°03' E 122°60'915.1
2017-May-26 14:54N 31°11' E 122°59'814.6
2017-May-26 14:23N 31°19' E 122°59'1314.8
2017-May-26 13:30N 31°32' E 122°58'815.4
2017-May-26 12:59N 31°40' E 122°58'816.2
2017-May-26 12:30N 31°48' E 122°58'816.9
2017-May-26 12:00N 31°56' E 122°57'917.6
2017-May-26 11:30N 32°05' E 122°57'1118.6
2017-May-26 10:56N 32°16' E 122°57'818.7
2017-May-26 10:30N 32°24' E 122°57'918.1
2017-May-26 10:00N 32°33' E 122°57'918.2
2017-May-26 09:30N 32°42' E 122°57'1217.8
2017-May-26 08:50N 32°54' E 122°57'26516.9
2017-May-25 17:09N 37°19' E 122°47'619.2
2017-May-25 16:50N 37°25' E 122°48'719.5
2017-May-25 16:29N 37°31' E 122°43'918.1
2017-May-25 15:59N 37°35' E 122°33'918.8
2017-May-25 15:30N 37°40' E 122°24'918.4
2017-May-25 15:00N 37°44' E 122°13'1817.7
2017-May-25 14:00N 37°46' E 121°51'917.8
2017-May-25 13:30N 37°49' E 121°40'917.7
2017-May-25 13:00N 37°53' E 121°30'917.8
2017-May-25 12:30N 37°54' E 121°19'917.6
2017-May-25 12:00N 37°57' E 121°08'917.6
2017-May-25 11:30N 37°58' E 120°57'918.3
2017-May-25 11:00N 38°00' E 120°46'918.2
2017-May-25 10:30N 38°02' E 120°35'917.4
2017-May-25 10:00N 38°04' E 120°24'917.1
2017-May-25 09:30N 38°08' E 120°14'917.2
2017-May-25 09:01N 38°12' E 120°04'119 4.1
2017-May-24 03:41N 39°01' E 117°46'0 0.6
2017-May-24 03:27N 39°01' E 117°46'1 1.5
2017-May-24 02:55N 39°01' E 117°47'3 6.6
2017-May-24 02:29N 38°58' E 117°48'4 8.3
2017-May-24 01:59N 38°57' E 117°54'5 9.1
2017-May-24 01:27N 38°57' E 118°00'2 5.7
2017-May-24 01:00N 38°56' E 118°03'510.1
2017-May-24 00:30N 38°54' E 118°09'5 9.7
2017-May-23 23:59N 38°52' E 118°15'4 9.0
2017-May-23 23:30N 38°50' E 118°20'3 5.4
2017-May-23 23:00N 38°47' E 118°21'1 1.6
2017-May-23 22:30N 38°48' E 118°20'2 4.2
2017-May-23 22:00N 38°49' E 118°23'1 1.0
2017-May-23 21:30N 38°49' E 118°22'4 7.6
2017-May-23 20:59N 38°50' E 118°27'612.2
2017-May-23 20:30N 38°50' E 118°35'612.7
2017-May-23 20:00N 38°49' E 118°43'612.9
2017-May-23 19:30N 38°48' E 118°51'712.9
2017-May-23 19:00N 38°45' E 118°59'713.4
2017-May-23 18:30N 38°43' E 119°06'713.9
2017-May-23 17:58N 38°39' E 119°15'714.2
2017-May-23 17:30N 38°36' E 119°22'714.4
2017-May-23 17:00N 38°32' E 119°30'3214.7
2017-May-23 14:50N 38°14' E 120°03'1214.1
2017-May-23 14:00N 38°07' E 120°15'815.0
2017-May-23 13:30N 38°05' E 120°24'715.0
2017-May-23 13:00N 38°03' E 120°34'714.8
2017-May-23 12:30N 38°02' E 120°43'714.2
2017-May-23 12:01N 37°60' E 120°51'714.4
2017-May-23 11:31N 37°59' E 121°00'714.1
2017-May-23 11:00N 37°58' E 121°09'713.7
2017-May-23 10:30N 37°56' E 121°18'713.1
2017-May-23 10:00N 37°54' E 121°26'713.5
2017-May-23 09:30N 37°53' E 121°34'713.5
2017-May-23 09:01N 37°51' E 121°42'713.8
2017-May-23 08:30N 37°49' E 121°51'714.2
2017-May-23 08:00N 37°47' E 121°59'714.5
2017-May-23 07:30N 37°45' E 122°08'714.7
2017-May-23 07:00N 37°44' E 122°17'385 8.6
2017-May-21 10:20N 31°21' E 121°39'2 6.5
2017-May-21 10:00N 31°20' E 121°41'611.1
2017-May-21 09:30N 31°18' E 121°47'714.0
2017-May-21 09:00N 31°16' E 121°55'713.9
2017-May-21 08:31N 31°14' E 122°03'5 9.2
2017-May-21 08:00N 31°13' E 122°08'5 9.5
2017-May-21 07:31N 31°10' E 122°12'4 8.7
2017-May-21 07:00N 31°07' E 122°16'510.1
2017-May-21 06:30N 31°06' E 122°22'63 5.3
2017-May-20 18:40N 30°13' E 123°00'38716.4
2017-May-19 19:04N 24°42' E 119°13'217.3
2017-May-19 18:57N 24°41' E 119°11'4317.2
2017-May-19 16:28N 24°13' E 118°36'817.1
2017-May-19 15:59N 24°07' E 118°30'816.8
2017-May-19 15:30N 24°02' E 118°23'  

Dump ship's entire track history